sensor_id;sensor_type;location;lat;lon;timestamp;pressure;altitude;pressure_sealevel;temperature;humidity
9289;BME280;4683;50.864;12.086;2023-01-23T00:01:44;100600.88;;;1.68;100.00
9289;BME280;4683;50.864;12.086;2023-01-23T00:04:16;100605.81;;;1.57;100.00
9289;BME280;4683;50.864;12.086;2023-01-23T00:06:46;100606.16;;;1.67;100.00
9289;BME280;4683;50.864;12.086;2023-01-23T00:09:17;100603.88;;;1.76;100.00
9289;BME280;4683;50.864;12.086;2023-01-23T00:11:47;100597.34;;;1.69;100.00
9289;BME280;4683;50.864;12.086;2023-01-23T00:14:15;100606.97;;;1.67;100.00
9289;BME280;4683;50.864;12.086;2023-01-23T00:16:44;100608.50;;;1.71;100.00
9289;BME280;4683;50.864;12.086;2023-01-23T00:19:12;100604.31;;;1.69;100.00
9289;BME280;4683;50.864;12.086;2023-01-23T00:21:42;100614.97;;;1.64;100.00
9289;BME280;4683;50.864;12.086;2023-01-23T00:24:11;100609.00;;;1.62;100.00
9289;BME280;4683;50.864;12.086;2023-01-23T00:26:39;100605.66;;;1.60;100.00
9289;BME280;4683;50.864;12.086;2023-01-23T00:29:10;100600.53;;;1.74;100.00
9289;BME280;4683;50.864;12.086;2023-01-23T00:31:41;100615.03;;;1.78;100.00
9289;BME280;4683;50.864;12.086;2023-01-23T00:34:13;100605.22;;;1.84;100.00
9289;BME280;4683;50.864;12.086;2023-01-23T00:36:44;100610.16;;;1.72;100.00
9289;BME280;4683;50.864;12.086;2023-01-23T00:39:16;100615.88;;;1.63;100.00
9289;BME280;4683;50.864;12.086;2023-01-23T00:41:46;100619.41;;;1.62;100.00
9289;BME280;4683;50.864;12.086;2023-01-23T00:44:16;100611.28;;;1.68;100.00
9289;BME280;4683;50.864;12.086;2023-01-23T00:46:45;100619.75;;;1.56;100.00
9289;BME280;4683;50.864;12.086;2023-01-23T00:49:15;100614.22;;;1.62;100.00
9289;BME280;4683;50.864;12.086;2023-01-23T00:51:44;100613.38;;;1.62;100.00
9289;BME280;4683;50.864;12.086;2023-01-23T00:54:12;100619.91;;;1.69;100.00
9289;BME280;4683;50.864;12.086;2023-01-23T00:56:40;100638.38;;;1.64;100.00
9289;BME280;4683;50.864;12.086;2023-01-23T00:59:11;100634.34;;;1.59;100.00
9289;BME280;4683;50.864;12.086;2023-01-23T01:01:41;100644.75;;;1.74;100.00
9289;BME280;4683;50.864;12.086;2023-01-23T01:04:10;100643.66;;;1.63;100.00
9289;BME280;4683;50.864;12.086;2023-01-23T01:06:39;100646.50;;;1.58;100.00
9289;BME280;4683;50.864;12.086;2023-01-23T01:09:07;100650.88;;;1.73;100.00
9289;BME280;4683;50.864;12.086;2023-01-23T01:11:35;100656.00;;;1.59;100.00
9289;BME280;4683;50.864;12.086;2023-01-23T01:14:04;100653.56;;;1.56;100.00
9289;BME280;4683;50.864;12.086;2023-01-23T01:16:34;100659.50;;;1.58;100.00
9289;BME280;4683;50.864;12.086;2023-01-23T01:19:06;100657.66;;;1.60;100.00
9289;BME280;4683;50.864;12.086;2023-01-23T01:21:34;100658.94;;;1.69;100.00
9289;BME280;4683;50.864;12.086;2023-01-23T01:24:03;100671.75;;;1.56;100.00
9289;BME280;4683;50.864;12.086;2023-01-23T01:26:32;100669.59;;;1.64;100.00
9289;BME280;4683;50.864;12.086;2023-01-23T01:29:00;100669.00;;;1.75;100.00
9289;BME280;4683;50.864;12.086;2023-01-23T01:31:29;100664.88;;;1.87;100.00
9289;BME280;4683;50.864;12.086;2023-01-23T01:33:58;100670.09;;;1.87;100.00
9289;BME280;4683;50.864;12.086;2023-01-23T01:36:28;100680.56;;;1.85;100.00
9289;BME280;4683;50.864;12.086;2023-01-23T01:38:56;100677.13;;;1.85;100.00
9289;BME280;4683;50.864;12.086;2023-01-23T01:41:25;100681.81;;;1.94;100.00
9289;BME280;4683;50.864;12.086;2023-01-23T01:43:53;100693.56;;;2.01;100.00
9289;BME280;4683;50.864;12.086;2023-01-23T01:46:24;100687.78;;;1.96;100.00
9289;BME280;4683;50.864;12.086;2023-01-23T01:49:05;100691.06;;;1.84;100.00
9289;BME280;4683;50.864;12.086;2023-01-23T01:51:43;100695.09;;;1.73;100.00
9289;BME280;4683;50.864;12.086;2023-01-23T01:54:24;100694.34;;;1.87;100.00
9289;BME280;4683;50.864;12.086;2023-01-23T01:56:59;100694.41;;;1.86;100.00
9289;BME280;4683;50.864;12.086;2023-01-23T01:59:31;100697.44;;;1.94;100.00
9289;BME280;4683;50.864;12.086;2023-01-23T02:02:06;100697.75;;;2.03;100.00
9289;BME280;4683;50.864;12.086;2023-01-23T02:04:44;100690.34;;;2.12;100.00
9289;BME280;4683;50.864;12.086;2023-01-23T02:07:24;100701.53;;;1.98;100.00
9289;BME280;4683;50.864;12.086;2023-01-23T02:09:55;100702.47;;;1.81;100.00
9289;BME280;4683;50.864;12.086;2023-01-23T02:12:24;100701.31;;;1.87;100.00
9289;BME280;4683;50.864;12.086;2023-01-23T02:14:54;100700.44;;;2.02;100.00
9289;BME280;4683;50.864;12.086;2023-01-23T02:17:22;100702.44;;;2.13;100.00
9289;BME280;4683;50.864;12.086;2023-01-23T02:19:57;100702.47;;;1.97;100.00
9289;BME280;4683;50.864;12.086;2023-01-23T02:22:44;100698.94;;;1.98;100.00
9289;BME280;4683;50.864;12.086;2023-01-23T02:25:24;100711.78;;;2.01;100.00
9289;BME280;4683;50.864;12.086;2023-01-23T02:27:56;100709.84;;;2.05;100.00
9289;BME280;4683;50.864;12.086;2023-01-23T02:30:25;100719.41;;;2.04;100.00
9289;BME280;4683;50.864;12.086;2023-01-23T02:32:54;100712.09;;;2.11;100.00
9289;BME280;4683;50.864;12.086;2023-01-23T02:35:25;100715.72;;;2.08;100.00
9289;BME280;4683;50.864;12.086;2023-01-23T02:37:59;100725.31;;;1.92;100.00
9289;BME280;4683;50.864;12.086;2023-01-23T02:40:31;100722.34;;;1.98;100.00
9289;BME280;4683;50.864;12.086;2023-01-23T02:43:03;100715.22;;;2.01;100.00
9289;BME280;4683;50.864;12.086;2023-01-23T02:45:34;100723.94;;;1.85;100.00
9289;BME280;4683;50.864;12.086;2023-01-23T02:48:05;100717.97;;;1.98;100.00
9289;BME280;4683;50.864;12.086;2023-01-23T02:50:35;100716.41;;;1.96;100.00
9289;BME280;4683;50.864;12.086;2023-01-23T02:53:04;100724.28;;;1.78;100.00
9289;BME280;4683;50.864;12.086;2023-01-23T02:55:33;100718.91;;;1.97;100.00
9289;BME280;4683;50.864;12.086;2023-01-23T02:58:04;100721.34;;;2.16;100.00
9289;BME280;4683;50.864;12.086;2023-01-23T03:00:47;100722.09;;;2.02;100.00
9289;BME280;4683;50.864;12.086;2023-01-23T03:03:15;100714.97;;;2.06;100.00
9289;BME280;4683;50.864;12.086;2023-01-23T03:05:44;100715.28;;;2.16;100.00
9289;BME280;4683;50.864;12.086;2023-01-23T03:08:13;100718.16;;;2.11;100.00
9289;BME280;4683;50.864;12.086;2023-01-23T03:10:42;100719.66;;;2.15;100.00
9289;BME280;4683;50.864;12.086;2023-01-23T03:13:12;100728.97;;;2.19;100.00
9289;BME280;4683;50.864;12.086;2023-01-23T03:15:40;100722.09;;;2.18;100.00
9289;BME280;4683;50.864;12.086;2023-01-23T03:18:09;100730.28;;;2.26;100.00
9289;BME280;4683;50.864;12.086;2023-01-23T03:20:39;100723.41;;;2.25;100.00
9289;BME280;4683;50.864;12.086;2023-01-23T03:23:09;100730.06;;;2.15;100.00
9289;BME280;4683;50.864;12.086;2023-01-23T03:25:42;100731.50;;;2.05;100.00
9289;BME280;4683;50.864;12.086;2023-01-23T03:28:12;100730.94;;;2.00;100.00
9289;BME280;4683;50.864;12.086;2023-01-23T03:30:54;100725.13;;;2.11;100.00
9289;BME280;4683;50.864;12.086;2023-01-23T03:33:24;100730.22;;;2.12;100.00
9289;BME280;4683;50.864;12.086;2023-01-23T03:35:52;100726.13;;;2.24;100.00
9289;BME280;4683;50.864;12.086;2023-01-23T03:38:20;100733.19;;;2.06;100.00
9289;BME280;4683;50.864;12.086;2023-01-23T03:40:50;100730.81;;;2.17;100.00
9289;BME280;4683;50.864;12.086;2023-01-23T03:43:37;100732.34;;;2.06;100.00
9289;BME280;4683;50.864;12.086;2023-01-23T03:46:06;100730.81;;;2.17;100.00
9289;BME280;4683;50.864;12.086;2023-01-23T03:48:35;100722.47;;;2.26;100.00
9289;BME280;4683;50.864;12.086;2023-01-23T03:51:04;100732.16;;;2.24;100.00
9289;BME280;4683;50.864;12.086;2023-01-23T03:53:33;100726.78;;;2.27;100.00
9289;BME280;4683;50.864;12.086;2023-01-23T03:56:01;100719.81;;;2.28;100.00
9289;BME280;4683;50.864;12.086;2023-01-23T03:58:30;100722.22;;;2.31;100.00
9289;BME280;4683;50.864;12.086;2023-01-23T04:01:05;100716.19;;;2.31;100.00
9289;BME280;4683;50.864;12.086;2023-01-23T04:03:34;100722.56;;;2.41;100.00
9289;BME280;4683;50.864;12.086;2023-01-23T04:06:03;100716.94;;;2.33;100.00
9289;BME280;4683;50.864;12.086;2023-01-23T04:08:33;100727.13;;;2.21;100.00
9289;BME280;4683;50.864;12.086;2023-01-23T04:11:03;100724.25;;;2.26;100.00
9289;BME280;4683;50.864;12.086;2023-01-23T04:13:32;100725.03;;;2.28;100.00
9289;BME280;4683;50.864;12.086;2023-01-23T04:16:04;100728.78;;;2.38;100.00
9289;BME280;4683;50.864;12.086;2023-01-23T04:18:33;100725.91;;;2.43;100.00
9289;BME280;4683;50.864;12.086;2023-01-23T04:21:02;100721.81;;;2.39;100.00
9289;BME280;4683;50.864;12.086;2023-01-23T04:23:31;100733.97;;;2.38;100.00
9289;BME280;4683;50.864;12.086;2023-01-23T04:25:59;100734.09;;;2.37;100.00
9289;BME280;4683;50.864;12.086;2023-01-23T04:28:27;100739.28;;;2.37;100.00
9289;BME280;4683;50.864;12.086;2023-01-23T04:30:56;100736.06;;;2.32;100.00
9289;BME280;4683;50.864;12.086;2023-01-23T04:33:26;100734.66;;;2.26;100.00
9289;BME280;4683;50.864;12.086;2023-01-23T04:35:57;100747.00;;;2.22;100.00
9289;BME280;4683;50.864;12.086;2023-01-23T04:38:27;100749.63;;;2.22;100.00
9289;BME280;4683;50.864;12.086;2023-01-23T04:40:57;100757.19;;;2.11;100.00
9289;BME280;4683;50.864;12.086;2023-01-23T04:43:25;100762.22;;;2.14;100.00
9289;BME280;4683;50.864;12.086;2023-01-23T04:45:56;100756.69;;;2.20;100.00
9289;BME280;4683;50.864;12.086;2023-01-23T04:48:26;100757.16;;;2.27;100.00
9289;BME280;4683;50.864;12.086;2023-01-23T04:52:04;100766.41;;;2.17;100.00
9289;BME280;4683;50.864;12.086;2023-01-23T06:04:32;100813.44;;;1.98;100.00
9289;BME280;4683;50.864;12.086;2023-01-23T06:07:03;100810.22;;;2.09;100.00
9289;BME280;4683;50.864;12.086;2023-01-23T06:10:49;100816.97;;;1.97;100.00
9289;BME280;4683;50.864;12.086;2023-01-23T06:15:11;100822.59;;;2.05;100.00
9289;BME280;4683;50.864;12.086;2023-01-23T07:11:34;100902.44;;;2.20;100.00
9289;BME280;4683;50.864;12.086;2023-01-23T07:14:07;100904.41;;;2.33;100.00
9289;BME280;4683;50.864;12.086;2023-01-23T07:16:40;100906.78;;;2.37;100.00
9289;BME280;4683;50.864;12.086;2023-01-23T07:19:11;100911.03;;;2.38;100.00
9289;BME280;4683;50.864;12.086;2023-01-23T07:21:42;100917.25;;;2.36;100.00
9289;BME280;4683;50.864;12.086;2023-01-23T07:24:13;100927.56;;;2.21;100.00
9289;BME280;4683;50.864;12.086;2023-01-23T07:26:58;100924.78;;;2.24;100.00
9289;BME280;4683;50.864;12.086;2023-01-23T07:29:31;100925.00;;;2.37;100.00
9289;BME280;4683;50.864;12.086;2023-01-23T07:32:12;100929.63;;;2.32;100.00
9289;BME280;4683;50.864;12.086;2023-01-23T07:34:47;100932.22;;;2.32;100.00
9289;BME280;4683;50.864;12.086;2023-01-23T07:37:19;100933.69;;;2.20;100.00
9289;BME280;4683;50.864;12.086;2023-01-23T07:39:51;100935.97;;;2.26;100.00
9289;BME280;4683;50.864;12.086;2023-01-23T07:42:35;100941.94;;;2.28;100.00
9289;BME280;4683;50.864;12.086;2023-01-23T07:45:06;100949.41;;;2.19;100.00
9289;BME280;4683;50.864;12.086;2023-01-23T07:47:41;100957.88;;;2.22;100.00
9289;BME280;4683;50.864;12.086;2023-01-23T07:50:16;100948.34;;;2.39;100.00
9289;BME280;4683;50.864;12.086;2023-01-23T07:52:46;100956.25;;;2.37;100.00
9289;BME280;4683;50.864;12.086;2023-01-23T07:55:16;100954.72;;;2.33;100.00
9289;BME280;4683;50.864;12.086;2023-01-23T07:58:01;100960.13;;;2.46;100.00
9289;BME280;4683;50.864;12.086;2023-01-23T08:00:42;100962.19;;;2.39;100.00
9289;BME280;4683;50.864;12.086;2023-01-23T08:03:13;100954.72;;;2.49;100.00
9289;BME280;4683;50.864;12.086;2023-01-23T08:05:41;100959.34;;;2.44;100.00
9289;BME280;4683;50.864;12.086;2023-01-23T08:08:16;100967.34;;;2.57;100.00
9289;BME280;4683;50.864;12.086;2023-01-23T08:11:03;100958.59;;;2.58;100.00
9289;BME280;4683;50.864;12.086;2023-01-23T08:13:49;100960.28;;;2.59;100.00
9289;BME280;4683;50.864;12.086;2023-01-23T08:16:25;100973.25;;;2.60;100.00
9289;BME280;4683;50.864;12.086;2023-01-23T08:18:59;100968.78;;;2.62;100.00
9289;BME280;4683;50.864;12.086;2023-01-23T08:21:30;100973.25;;;2.60;100.00
9289;BME280;4683;50.864;12.086;2023-01-23T08:24:01;100974.09;;;2.61;100.00
9289;BME280;4683;50.864;12.086;2023-01-23T08:26:31;100980.03;;;2.47;100.00
9289;BME280;4683;50.864;12.086;2023-01-23T08:29:06;100978.94;;;2.51;100.00
9289;BME280;4683;50.864;12.086;2023-01-23T08:31:54;100988.19;;;2.57;100.00
9289;BME280;4683;50.864;12.086;2023-01-23T08:34:26;100990.41;;;2.64;100.00
9289;BME280;4683;50.864;12.086;2023-01-23T08:36:56;100984.34;;;2.64;100.00
9289;BME280;4683;50.864;12.086;2023-01-23T08:39:38;100979.78;;;2.67;100.00
9289;BME280;4683;50.864;12.086;2023-01-23T08:42:08;100985.69;;;2.55;100.00
9289;BME280;4683;50.864;12.086;2023-01-23T08:44:59;100970.22;;;2.68;100.00
9289;BME280;4683;50.864;12.086;2023-01-23T08:47:36;100970.22;;;2.84;100.00
9289;BME280;4683;50.864;12.086;2023-01-23T08:50:10;100974.59;;;2.83;100.00
9289;BME280;4683;50.864;12.086;2023-01-23T08:52:41;100992.72;;;2.53;100.00
9289;BME280;4683;50.864;12.086;2023-01-23T08:55:11;100986.09;;;2.63;100.00
9289;BME280;4683;50.864;12.086;2023-01-23T08:57:41;100983.59;;;2.77;100.00
9289;BME280;4683;50.864;12.086;2023-01-23T09:00:22;100988.88;;;2.76;100.00
9289;BME280;4683;50.864;12.086;2023-01-23T09:02:55;100983.00;;;2.88;100.00
9289;BME280;4683;50.864;12.086;2023-01-23T09:05:31;100971.34;;;2.95;100.00
9289;BME280;4683;50.864;12.086;2023-01-23T09:08:21;100980.22;;;3.07;100.00
9289;BME280;4683;50.864;12.086;2023-01-23T09:11:12;100986.53;;;3.03;100.00
9289;BME280;4683;50.864;12.086;2023-01-23T09:13:57;100981.16;;;2.90;100.00
9289;BME280;4683;50.864;12.086;2023-01-23T09:16:48;100986.63;;;2.70;100.00
9289;BME280;4683;50.864;12.086;2023-01-23T09:19:20;100980.50;;;2.87;100.00
9289;BME280;4683;50.864;12.086;2023-01-23T09:21:52;100982.47;;;3.13;100.00
9289;BME280;4683;50.864;12.086;2023-01-23T09:24:23;100990.22;;;2.99;100.00
9289;BME280;4683;50.864;12.086;2023-01-23T09:26:54;100983.59;;;3.09;100.00
9289;BME280;4683;50.864;12.086;2023-01-23T09:29:24;100979.97;;;3.12;100.00
9289;BME280;4683;50.864;12.086;2023-01-23T09:32:04;100986.03;;;3.12;100.00
9289;BME280;4683;50.864;12.086;2023-01-23T09:34:37;100993.94;;;2.95;100.00
9289;BME280;4683;50.864;12.086;2023-01-23T09:37:07;100989.91;;;3.05;100.00
9289;BME280;4683;50.864;12.086;2023-01-23T09:39:37;100995.38;;;3.16;100.00
9289;BME280;4683;50.864;12.086;2023-01-23T09:42:16;100992.78;;;3.00;100.00
9289;BME280;4683;50.864;12.086;2023-01-23T09:45:08;100994.19;;;3.06;100.00
9289;BME280;4683;50.864;12.086;2023-01-23T09:48:11;101011.53;;;2.91;100.00
9289;BME280;4683;50.864;12.086;2023-01-23T09:50:53;101012.09;;;2.80;100.00
9289;BME280;4683;50.864;12.086;2023-01-23T09:53:35;100999.31;;;2.92;100.00
9289;BME280;4683;50.864;12.086;2023-01-23T09:56:28;100997.31;;;2.97;100.00
9289;BME280;4683;50.864;12.086;2023-01-23T09:59:31;100993.78;;;2.82;100.00
9289;BME280;4683;50.864;12.086;2023-01-23T10:02:16;100980.31;;;2.90;100.00
9289;BME280;4683;50.864;12.086;2023-01-23T10:05:08;100986.34;;;2.90;100.00
9289;BME280;4683;50.864;12.086;2023-01-23T10:07:58;100986.34;;;2.90;100.00
9289;BME280;4683;50.864;12.086;2023-01-23T10:10:56;100989.75;;;2.92;100.00
9289;BME280;4683;50.864;12.086;2023-01-23T10:13:49;100992.25;;;2.94;100.00
9289;BME280;4683;50.864;12.086;2023-01-23T10:16:53;100986.81;;;2.83;100.00
9289;BME280;4683;50.864;12.086;2023-01-23T10:20:02;100989.22;;;2.86;100.00
9289;BME280;4683;50.864;12.086;2023-01-23T10:22:49;100988.06;;;3.07;100.00
9289;BME280;4683;50.864;12.086;2023-01-23T10:25:35;100994.63;;;3.14;100.00
9289;BME280;4683;50.864;12.086;2023-01-23T10:28:33;100994.03;;;3.09;100.00
9289;BME280;4683;50.864;12.086;2023-01-23T10:31:20;100976.94;;;3.19;100.00
9289;BME280;4683;50.864;12.086;2023-01-23T10:34:01;100987.38;;;3.19;100.00
9289;BME280;4683;50.864;12.086;2023-01-23T10:37:14;100985.50;;;3.21;100.00
9289;BME280;4683;50.864;12.086;2023-01-23T10:44:21;100997.16;;;3.00;100.00
9289;BME280;4683;50.864;12.086;2023-01-23T10:47:24;100999.81;;;2.83;100.00
9289;BME280;4683;50.864;12.086;2023-01-23T10:50:01;100985.44;;;3.07;100.00
9289;BME280;4683;50.864;12.086;2023-01-23T10:52:38;100970.81;;;3.20;100.00
9289;BME280;4683;50.864;12.086;2023-01-23T10:55:34;100977.94;;;3.33;100.00
9289;BME280;4683;50.864;12.086;2023-01-23T10:58:43;100978.03;;;3.61;100.00
9289;BME280;4683;50.864;12.086;2023-01-23T11:20:52;101010.09;;;3.01;100.00
9289;BME280;4683;50.864;12.086;2023-01-23T11:23:35;101016.69;;;2.75;100.00
9289;BME280;4683;50.864;12.086;2023-01-23T11:27:14;101010.91;;;2.70;100.00
9289;BME280;4683;50.864;12.086;2023-01-23T11:30:57;100992.44;;;3.07;100.00
9289;BME280;4683;50.864;12.086;2023-01-23T11:34:00;100992.75;;;3.16;100.00
9289;BME280;4683;50.864;12.086;2023-01-23T11:37:09;100991.03;;;3.31;100.00
9289;BME280;4683;50.864;12.086;2023-01-23T11:41:06;101002.31;;;3.31;100.00
9289;BME280;4683;50.864;12.086;2023-01-23T11:45:32;100999.00;;;3.14;100.00
9289;BME280;4683;50.864;12.086;2023-01-23T11:48:39;100999.53;;;3.35;100.00
9289;BME280;4683;50.864;12.086;2023-01-23T11:56:56;100985.31;;;3.40;100.00
9289;BME280;4683;50.864;12.086;2023-01-23T12:04:07;100973.88;;;3.43;100.00
9289;BME280;4683;50.864;12.086;2023-01-23T12:08:03;100978.22;;;3.58;100.00
9289;BME280;4683;50.864;12.086;2023-01-23T12:11:56;100977.41;;;3.42;100.00
9289;BME280;4683;50.864;12.086;2023-01-23T12:54:28;100956.03;;;3.05;100.00
9289;BME280;4683;50.864;12.086;2023-01-23T12:58:45;100952.84;;;3.00;100.00
9289;BME280;4683;50.864;12.086;2023-01-23T13:01:53;100958.75;;;3.18;100.00
9289;BME280;4683;50.864;12.086;2023-01-23T13:07:50;100955.41;;;3.16;100.00
9289;BME280;4683;50.864;12.086;2023-01-23T13:11:03;100960.63;;;3.16;100.00
9289;BME280;4683;50.864;12.086;2023-01-23T13:14:44;100957.13;;;3.01;100.00
9289;BME280;4683;50.864;12.086;2023-01-23T13:17:36;100959.63;;;3.02;100.00
9289;BME280;4683;50.864;12.086;2023-01-23T13:20:25;100955.19;;;3.04;100.00
9289;BME280;4683;50.864;12.086;2023-01-23T13:23:31;100950.81;;;3.05;100.00
9289;BME280;4683;50.864;12.086;2023-01-23T13:26:34;100957.28;;;3.14;100.00
9289;BME280;4683;50.864;12.086;2023-01-23T13:29:48;100960.56;;;3.01;100.00
9289;BME280;4683;50.864;12.086;2023-01-23T13:32:21;100961.63;;;3.13;100.00
9289;BME280;4683;50.864;12.086;2023-01-23T13:34:52;100961.81;;;3.10;100.00
9289;BME280;4683;50.864;12.086;2023-01-23T13:37:48;100964.34;;;2.96;100.00
9289;BME280;4683;50.864;12.086;2023-01-23T13:40:32;100963.69;;;2.92;100.00
9289;BME280;4683;50.864;12.086;2023-01-23T13:52:12;100966.84;;;2.82;100.00
9289;BME280;4683;50.864;12.086;2023-01-23T13:56:14;100964.50;;;2.77;100.00
9289;BME280;4683;50.864;12.086;2023-01-23T15:00:26;100970.78;;;2.57;100.00
9289;BME280;4683;50.864;12.086;2023-01-23T15:06:15;100978.34;;;2.46;100.00
9289;BME280;4683;50.864;12.086;2023-01-23T15:09:31;100964.94;;;2.36;100.00
9289;BME280;4683;50.864;12.086;2023-01-23T15:12:19;100969.16;;;2.39;100.00
9289;BME280;4683;50.864;12.086;2023-01-23T15:14:53;100968.69;;;2.48;100.00
9289;BME280;4683;50.864;12.086;2023-01-23T15:22:20;100970.34;;;2.49;100.00
9289;BME280;4683;50.864;12.086;2023-01-23T15:24:54;100971.56;;;2.59;100.00
9289;BME280;4683;50.864;12.086;2023-01-23T15:27:38;100973.94;;;2.64;100.00
9289;BME280;4683;50.864;12.086;2023-01-23T15:30:46;100982.72;;;2.61;100.00
9289;BME280;4683;50.864;12.086;2023-01-23T15:33:32;100978.84;;;2.37;100.00
9289;BME280;4683;50.864;12.086;2023-01-23T15:36:29;100979.13;;;2.31;100.00
9289;BME280;4683;50.864;12.086;2023-01-23T16:07:25;100998.31;;;2.12;100.00
9289;BME280;4683;50.864;12.086;2023-01-23T16:10:46;100998.09;;;1.99;100.00
9289;BME280;4683;50.864;12.086;2023-01-23T16:13:54;101004.13;;;2.17;100.00
9289;BME280;4683;50.864;12.086;2023-01-23T16:17:40;101003.25;;;2.01;100.00
9289;BME280;4683;50.864;12.086;2023-01-23T17:34:21;101055.09;;;2.21;100.00
9289;BME280;4683;50.864;12.086;2023-01-23T17:36:55;101053.75;;;2.14;100.00
9289;BME280;4683;50.864;12.086;2023-01-23T17:39:44;101054.75;;;2.12;100.00
9289;BME280;4683;50.864;12.086;2023-01-23T17:42:59;101056.41;;;2.13;100.00
9289;BME280;4683;50.864;12.086;2023-01-23T17:45:33;101063.84;;;2.20;100.00
9289;BME280;4683;50.864;12.086;2023-01-23T17:48:10;101060.31;;;2.04;100.00
9289;BME280;4683;50.864;12.086;2023-01-23T17:51:11;101054.50;;;2.16;100.00
9289;BME280;4683;50.864;12.086;2023-01-23T17:53:47;101049.38;;;2.15;100.00
9289;BME280;4683;50.864;12.086;2023-01-23T17:56:17;101063.69;;;2.23;100.00
9289;BME280;4683;50.864;12.086;2023-01-23T17:58:47;101052.97;;;2.29;100.00
9289;BME280;4683;50.864;12.086;2023-01-23T18:01:20;101043.00;;;2.38;100.00
9289;BME280;4683;50.864;12.086;2023-01-23T18:03:52;101062.91;;;2.39;100.00
9289;BME280;4683;50.864;12.086;2023-01-23T18:06:30;101061.56;;;2.14;100.00
9289;BME280;4683;50.864;12.086;2023-01-23T18:09:00;101059.25;;;2.25;100.00
9289;BME280;4683;50.864;12.086;2023-01-23T18:11:32;101054.88;;;2.26;100.00
9289;BME280;4683;50.864;12.086;2023-01-23T18:14:34;101057.66;;;2.23;100.00
9289;BME280;4683;50.864;12.086;2023-01-23T18:17:30;101064.38;;;2.27;100.00
9289;BME280;4683;50.864;12.086;2023-01-23T18:20:04;101064.31;;;2.28;100.00
9289;BME280;4683;50.864;12.086;2023-01-23T18:22:56;101070.03;;;2.18;100.00
9289;BME280;4683;50.864;12.086;2023-01-23T18:25:27;101064.38;;;2.27;100.00
9289;BME280;4683;50.864;12.086;2023-01-23T18:28:01;101064.69;;;2.21;100.00
9289;BME280;4683;50.864;12.086;2023-01-23T18:30:42;101067.53;;;2.16;100.00
9289;BME280;4683;50.864;12.086;2023-01-23T18:33:34;101063.22;;;1.98;100.00
9289;BME280;4683;50.864;12.086;2023-01-23T18:36:31;101058.78;;;1.83;100.00
9289;BME280;4683;50.864;12.086;2023-01-23T20:40:44;101080.22;;;2.40;100.00
9289;BME280;4683;50.864;12.086;2023-01-23T20:43:15;101084.94;;;2.49;100.00
9289;BME280;4683;50.864;12.086;2023-01-23T20:45:46;101087.88;;;2.43;100.00
9289;BME280;4683;50.864;12.086;2023-01-23T20:48:18;101083.06;;;2.35;100.00
9289;BME280;4683;50.864;12.086;2023-01-23T20:50:52;101086.34;;;2.39;100.00
9289;BME280;4683;50.864;12.086;2023-01-23T20:53:23;101087.28;;;2.38;100.00
9289;BME280;4683;50.864;12.086;2023-01-23T20:56:03;101085.38;;;2.41;100.00
9289;BME280;4683;50.864;12.086;2023-01-23T20:58:36;101077.16;;;2.32;100.00
9289;BME280;4683;50.864;12.086;2023-01-23T21:01:29;101089.09;;;2.36;100.00
9289;BME280;4683;50.864;12.086;2023-01-23T21:04:20;101088.50;;;2.31;100.00
9289;BME280;4683;50.864;12.086;2023-01-23T21:06:50;101081.97;;;2.39;100.00
9289;BME280;4683;50.864;12.086;2023-01-23T21:09:21;101083.28;;;2.48;100.00
9289;BME280;4683;50.864;12.086;2023-01-23T21:11:55;101083.28;;;2.48;100.00
9289;BME280;4683;50.864;12.086;2023-01-23T21:14:25;101090.81;;;2.37;100.00
9289;BME280;4683;50.864;12.086;2023-01-23T21:16:54;101085.41;;;2.40;100.00
9289;BME280;4683;50.864;12.086;2023-01-23T21:19:26;101085.41;;;2.40;100.00
9289;BME280;4683;50.864;12.086;2023-01-23T21:21:56;101082.44;;;2.30;100.00
9289;BME280;4683;50.864;12.086;2023-01-23T21:24:26;101085.97;;;2.29;100.00
9289;BME280;4683;50.864;12.086;2023-01-23T21:27:04;101079.59;;;2.35;100.00
9289;BME280;4683;50.864;12.086;2023-01-23T21:29:37;101089.78;;;2.39;100.00
9289;BME280;4683;50.864;12.086;2023-01-23T21:32:07;101093.00;;;2.27;100.00
9289;BME280;4683;50.864;12.086;2023-01-23T21:34:37;101090.94;;;2.34;100.00
9289;BME280;4683;50.864;12.086;2023-01-23T21:37:08;101097.84;;;2.35;100.00
